Time;durP1;ratioP1;P1;durP2;ratioP2;P2;SDS_P1;SDS_P2;PMS_P1;PMS_P2;Temp;Humidity;BMP_temperature;BMP_pressure;BME280_temperature;BME280_humidity;BME280_pressure;Samples;Min_cycle;Max_cycle;Signal;HPM_P1;HPM_P2
2022/02/13 00:00:22;;;;;;;25.67;10.38;;;;;;;;;;4952388;28;20080;-62
2022/02/13 00:02:47;;;;;;;24.42;9.07;;;;;;;;;;4954012;28;20049;-63
2022/02/13 00:05:13;;;;;;;22.63;10.32;;;;;;;;;;4954157;28;20096;-62
2022/02/13 00:07:39;;;;;;;19.90;8.95;;;;;;;;;;4952591;28;20347;-62
2022/02/13 00:10:07;;;;;;;28.10;10.75;;;;;;;;;;4952874;28;20428;-62
2022/02/13 00:12:33;;;;;;;25.77;10.25;;;;;;;;;;4952551;28;20447;-63
2022/02/13 00:14:59;;;;;;;27.02;10.10;;;;;;;;;;4934426;28;20464;-62
2022/02/13 00:17:24;;;;;;;30.63;10.43;;;;;;;;;;4934752;28;20360;-62
2022/02/13 00:19:50;;;;;;;28.92;9.73;;;;;;;;;;4951955;28;20407;-62
2022/02/13 00:22:17;;;;;;;22.75;9.23;;;;;;;;;;4953503;28;20471;-62
2022/02/13 00:24:45;;;;;;;28.60;9.57;;;;;;;;;;4951809;28;20341;-62
2022/02/13 00:27:11;;;;;;;20.97;9.07;;;;;;;;;;4952741;28;20325;-63
2022/02/13 00:29:37;;;;;;;25.17;10.13;;;;;;;;;;4952791;28;20029;-62
2022/02/13 00:32:03;;;;;;;26.08;8.88;;;;;;;;;;4951215;28;20409;-62
2022/02/13 00:34:28;;;;;;;24.75;9.80;;;;;;;;;;4951509;28;20337;-63
2022/02/13 00:36:54;;;;;;;20.00;8.10;;;;;;;;;;4951032;28;20402;-62
2022/02/13 00:39:19;;;;;;;24.08;9.70;;;;;;;;;;4951519;28;20434;-61
2022/02/13 00:41:44;;;;;;;23.67;9.23;;;;;;;;;;4951658;28;20057;-62
2022/02/13 00:44:10;;;;;;;21.08;9.25;;;;;;;;;;4951606;28;20467;-62
2022/02/13 00:46:35;;;;;;;25.17;10.18;;;;;;;;;;4952260;28;20345;-62
2022/02/13 00:49:01;;;;;;;23.80;8.38;;;;;;;;;;4951853;28;20053;-62
2022/02/13 00:51:26;;;;;;;21.48;8.65;;;;;;;;;;4952250;28;20460;-61
2022/02/13 00:53:51;;;;;;;20.60;8.52;;;;;;;;;;4951308;28;20528;-62
2022/02/13 00:56:17;;;;;;;20.80;9.55;;;;;;;;;;4950949;28;20476;-62
2022/02/13 00:58:44;;;;;;;22.63;8.93;;;;;;;;;;4951967;28;20452;-61
2022/02/13 01:01:10;;;;;;;24.77;8.77;;;;;;;;;;4944894;28;20373;-63
2022/02/13 01:03:35;;;;;;;26.38;9.50;;;;;;;;;;4937546;28;20385;-62
2022/02/13 01:06:01;;;;;;;22.38;8.63;;;;;;;;;;4931472;28;20433;-61
2022/02/13 01:08:26;;;;;;;24.13;9.25;;;;;;;;;;4932189;28;20476;-63
2022/02/13 01:10:51;;;;;;;21.90;8.70;;;;;;;;;;4932454;28;20497;-63
2022/02/13 01:13:17;;;;;;;18.13;7.68;;;;;;;;;;4931483;28;20499;-62
2022/02/13 01:15:43;;;;;;;20.45;8.75;;;;;;;;;;4932390;28;20060;-62
2022/02/13 01:18:08;;;;;;;17.92;8.23;;;;;;;;;;4931342;28;20072;-62
2022/02/13 01:20:33;;;;;;;18.30;8.10;;;;;;;;;;4931418;28;20472;-62
2022/02/13 01:22:59;;;;;;;20.70;8.85;;;;;;;;;;4914266;28;20382;-63
2022/02/13 01:25:24;;;;;;;22.40;8.75;;;;;;;;;;4931105;28;20034;-63
2022/02/13 01:27:50;;;;;;;19.58;8.02;;;;;;;;;;4933208;28;20346;-63
2022/02/13 01:30:15;;;;;;;19.77;7.65;;;;;;;;;;4930836;28;20437;-63
2022/02/13 01:32:40;;;;;;;20.00;8.35;;;;;;;;;;4931344;28;20057;-63
2022/02/13 01:35:06;;;;;;;18.58;7.95;;;;;;;;;;4930222;28;20061;-63
2022/02/13 01:37:31;;;;;;;17.23;8.05;;;;;;;;;;4931083;28;20352;-63
2022/02/13 01:39:57;;;;;;;22.45;8.73;;;;;;;;;;4931285;28;20436;-63
2022/02/13 01:42:22;;;;;;;16.92;7.95;;;;;;;;;;4932205;28;20056;-63
2022/02/13 01:44:51;;;;;;;18.70;7.55;;;;;;;;;;4931944;28;20467;-61
2022/02/13 01:47:17;;;;;;;18.30;8.32;;;;;;;;;;4931044;28;20437;-63
2022/02/13 01:49:42;;;;;;;17.35;7.32;;;;;;;;;;4931921;28;20426;-63
2022/02/13 01:52:07;;;;;;;15.48;7.25;;;;;;;;;;4931002;28;20345;-62
2022/02/13 01:54:33;;;;;;;17.70;8.70;;;;;;;;;;4932129;28;20445;-62
2022/02/13 01:56:59;;;;;;;26.55;9.25;;;;;;;;;;4931219;28;20479;-62
2022/02/13 01:59:24;;;;;;;17.13;7.60;;;;;;;;;;4930558;28;20523;-62
2022/02/13 02:01:49;;;;;;;20.70;7.93;;;;;;;;;;4930541;28;20352;-63
2022/02/13 02:04:15;;;;;;;20.23;8.02;;;;;;;;;;4930514;28;20527;-62
2022/02/13 02:06:40;;;;;;;17.42;7.47;;;;;;;;;;4930190;28;20442;-62
2022/02/13 02:09:06;;;;;;;18.00;7.85;;;;;;;;;;4930190;28;20418;-63
2022/02/13 02:11:33;;;;;;;19.15;7.68;;;;;;;;;;4928468;28;20520;-63
2022/02/13 02:13:58;;;;;;;18.67;7.57;;;;;;;;;;4930335;28;20034;-63
2022/02/13 02:16:24;;;;;;;19.27;7.85;;;;;;;;;;4930441;28;20038;-63
2022/02/13 02:18:50;;;;;;;20.45;7.68;;;;;;;;;;4931283;28;20031;-62
2022/02/13 02:21:15;;;;;;;19.92;7.97;;;;;;;;;;4930377;28;20516;-62
2022/02/13 02:23:40;;;;;;;18.80;7.47;;;;;;;;;;4931336;28;20480;-62
2022/02/13 02:26:07;;;;;;;19.15;7.60;;;;;;;;;;4930397;28;20558;-63
2022/02/13 02:28:32;;;;;;;15.93;7.40;;;;;;;;;;4930174;28;20552;-62
2022/02/13 02:30:58;;;;;;;20.77;7.63;;;;;;;;;;4929681;28;20461;-63
2022/02/13 02:33:23;;;;;;;17.70;7.88;;;;;;;;;;4930188;28;20327;-62
2022/02/13 02:35:48;;;;;;;20.25;7.38;;;;;;;;;;4930051;28;20491;-63
2022/02/13 02:38:15;;;;;;;18.45;7.15;;;;;;;;;;4930491;28;20045;-63
2022/02/13 02:40:41;;;;;;;19.20;7.07;;;;;;;;;;4930454;28;20437;-62
2022/02/13 02:43:07;;;;;;;19.30;7.65;;;;;;;;;;4930252;28;20484;-62
2022/02/13 02:45:32;;;;;;;15.52;7.03;;;;;;;;;;4930243;28;20437;-62
2022/02/13 02:47:58;;;;;;;16.75;8.00;;;;;;;;;;4930503;28;20488;-61
2022/02/13 02:50:23;;;;;;;15.57;7.03;;;;;;;;;;4930462;28;20507;-63
2022/02/13 02:52:49;;;;;;;18.20;7.70;;;;;;;;;;4930636;28;20449;-61
2022/02/13 02:55:14;;;;;;;18.38;7.40;;;;;;;;;;4930341;28;20418;-63
2022/02/13 02:57:39;;;;;;;13.88;6.38;;;;;;;;;;4930184;28;20433;-63
2022/02/13 03:00:06;;;;;;;14.85;6.63;;;;;;;;;;4930501;28;20436;-62
2022/02/13 03:02:32;;;;;;;15.85;6.50;;;;;;;;;;4930139;28;20430;-63
2022/02/13 03:04:57;;;;;;;16.35;6.78;;;;;;;;;;4929902;28;20074;-62
2022/02/13 03:07:22;;;;;;;17.92;8.07;;;;;;;;;;4930078;28;20512;-62
2022/02/13 03:09:48;;;;;;;20.05;8.40;;;;;;;;;;4929986;28;20512;-62
2022/02/13 03:12:13;;;;;;;17.63;7.20;;;;;;;;;;4929685;28;20061;-62
2022/02/13 03:14:38;;;;;;;14.88;7.18;;;;;;;;;;4912338;28;20460;-62
2022/02/13 03:17:06;;;;;;;20.65;7.47;;;;;;;;;;4930547;28;20108;-62
2022/02/13 03:19:32;;;;;;;14.10;6.43;;;;;;;;;;4930185;28;20080;-62
2022/02/13 03:21:58;;;;;;;17.80;7.03;;;;;;;;;;4930917;28;20357;-62
2022/02/13 03:24:23;;;;;;;17.33;6.80;;;;;;;;;;4929929;28;20023;-62
2022/02/13 03:26:48;;;;;;;15.20;6.55;;;;;;;;;;4929735;28;20421;-62
2022/02/13 03:29:14;;;;;;;18.30;7.03;;;;;;;;;;4930846;28;20498;-62
2022/02/13 03:31:40;;;;;;;16.65;6.57;;;;;;;;;;4929844;28;20460;-63
2022/02/13 03:34:05;;;;;;;12.93;5.97;;;;;;;;;;4929792;28;20026;-62
2022/02/13 03:36:31;;;;;;;15.63;6.90;;;;;;;;;;4909170;28;20065;-62
2022/02/13 03:38:56;;;;;;;12.45;5.65;;;;;;;;;;4910510;28;20401;-62
2022/02/13 03:41:21;;;;;;;16.60;6.78;;;;;;;;;;4911333;28;20339;-63
2022/02/13 03:43:47;;;;;;;15.07;6.35;;;;;;;;;;4913862;28;20452;-63
2022/02/13 03:46:12;;;;;;;16.88;6.28;;;;;;;;;;4913891;28;20482;-63
2022/02/13 03:48:37;;;;;;;17.55;6.55;;;;;;;;;;4913928;28;20062;-62
2022/02/13 03:51:02;;;;;;;16.75;6.50;;;;;;;;;;4914111;28;20382;-62
2022/02/13 03:53:28;;;;;;;15.07;5.65;;;;;;;;;;4914647;28;20406;-62
2022/02/13 03:55:53;;;;;;;18.60;6.00;;;;;;;;;;4914061;28;20534;-63
2022/02/13 03:58:18;;;;;;;14.07;5.53;;;;;;;;;;4913658;28;20501;-62
2022/02/13 04:00:45;;;;;;;15.35;5.93;;;;;;;;;;4914250;28;20555;-62
2022/02/13 04:03:10;;;;;;;14.60;5.95;;;;;;;;;;4913280;28;20432;-62
2022/02/13 04:05:36;;;;;;;12.07;5.78;;;;;;;;;;4914883;28;20434;-63
2022/02/13 04:08:01;;;;;;;12.77;5.93;;;;;;;;;;4914216;28;20396;-61
2022/02/13 04:10:26;;;;;;;12.85;6.03;;;;;;;;;;4913449;28;20100;-63
2022/02/13 04:12:52;;;;;;;11.07;5.57;;;;;;;;;;4913440;28;20438;-62
2022/02/13 04:15:17;;;;;;;17.58;6.20;;;;;;;;;;4913597;28;20365;-62
2022/02/13 04:17:42;;;;;;;14.50;6.00;;;;;;;;;;4913380;28;20414;-63
2022/02/13 04:20:08;;;;;;;12.75;5.45;;;;;;;;;;4913713;28;20419;-62
2022/02/13 04:22:34;;;;;;;12.82;5.85;;;;;;;;;;4913075;28;20105;-62
2022/02/13 04:24:59;;;;;;;13.52;6.32;;;;;;;;;;4912956;28;20045;-62
2022/02/13 04:27:25;;;;;;;11.60;5.47;;;;;;;;;;4913229;28;20368;-62
2022/02/13 04:29:50;;;;;;;11.52;5.18;;;;;;;;;;4913121;28;20441;-62
2022/02/13 04:32:15;;;;;;;11.80;5.90;;;;;;;;;;4913074;28;20401;-62
2022/02/13 04:34:41;;;;;;;13.63;5.40;;;;;;;;;;4913645;28;20319;-62
2022/02/13 04:37:06;;;;;;;11.27;5.38;;;;;;;;;;4930852;28;20531;-63
2022/02/13 04:39:32;;;;;;;12.80;5.50;;;;;;;;;;4932591;28;20464;-63
2022/02/13 04:41:57;;;;;;;12.48;5.25;;;;;;;;;;4933944;28;20357;-63
2022/02/13 04:44:22;;;;;;;12.43;5.30;;;;;;;;;;4932542;28;20426;-62
2022/02/13 04:46:48;;;;;;;10.57;5.43;;;;;;;;;;4931682;28;20349;-63
2022/02/13 04:49:13;;;;;;;15.15;6.13;;;;;;;;;;4932066;28;20449;-62
2022/02/13 04:51:39;;;;;;;12.32;5.30;;;;;;;;;;4931701;28;20506;-62
2022/02/13 04:54:04;;;;;;;12.05;5.55;;;;;;;;;;4931798;28;20318;-62
2022/02/13 04:56:29;;;;;;;11.73;5.95;;;;;;;;;;4931840;28;20344;-63
2022/02/13 04:58:55;;;;;;;12.30;5.05;;;;;;;;;;4931860;28;20433;-62
2022/02/13 05:01:20;;;;;;;11.65;5.13;;;;;;;;;;4933455;28;20394;-62
2022/02/13 05:03:45;;;;;;;12.20;4.78;;;;;;;;;;4931954;28;20460;-61
2022/02/13 05:06:11;;;;;;;11.85;5.47;;;;;;;;;;4932054;28;20349;-63
2022/02/13 05:08:36;;;;;;;12.77;5.68;;;;;;;;;;4931582;28;20052;-62
2022/02/13 05:11:02;;;;;;;14.38;5.60;;;;;;;;;;4931713;28;20426;-62
2022/02/13 05:13:27;;;;;;;10.07;5.03;;;;;;;;;;4931161;28;20451;-62
2022/02/13 05:15:52;;;;;;;16.45;5.15;;;;;;;;;;4931407;28;20381;-63
2022/02/13 05:18:18;;;;;;;9.52;4.55;;;;;;;;;;4932338;28;20031;-62
2022/02/13 05:20:43;;;;;;;12.70;4.95;;;;;;;;;;4931772;28;20488;-62
2022/02/13 05:23:08;;;;;;;11.75;5.70;;;;;;;;;;4933223;28;20463;-63
2022/02/13 05:25:34;;;;;;;11.13;4.53;;;;;;;;;;4931162;28;21094;-62
2022/02/13 05:27:59;;;;;;;11.38;5.30;;;;;;;;;;4931269;28;20454;-62
2022/02/13 05:30:24;;;;;;;12.60;4.85;;;;;;;;;;4931834;28;20442;-62
2022/02/13 05:32:50;;;;;;;9.52;5.00;;;;;;;;;;4932068;28;20365;-62
2022/02/13 05:35:15;;;;;;;10.05;4.57;;;;;;;;;;4931277;28;20419;-62
2022/02/13 05:37:40;;;;;;;11.77;4.90;;;;;;;;;;4931186;28;20427;-61
2022/02/13 05:40:07;;;;;;;10.25;5.32;;;;;;;;;;4930920;28;20333;-62
2022/02/13 05:42:32;;;;;;;12.02;5.95;;;;;;;;;;4930751;28;20109;-63
2022/02/13 05:44:58;;;;;;;13.13;5.47;;;;;;;;;;4931275;28;20052;-62
2022/02/13 05:47:23;;;;;;;12.93;5.30;;;;;;;;;;4930902;28;20439;-62
2022/02/13 05:49:49;;;;;;;14.43;5.75;;;;;;;;;;4931053;28;20448;-63
2022/02/13 05:52:14;;;;;;;14.15;5.05;;;;;;;;;;4930561;28;20084;-62
2022/02/13 05:54:40;;;;;;;14.40;5.75;;;;;;;;;;4930658;28;20349;-62
2022/02/13 05:57:06;;;;;;;12.93;5.50;;;;;;;;;;4930504;28;20030;-63
2022/02/13 05:59:31;;;;;;;14.23;5.20;;;;;;;;;;4930509;28;20468;-62
2022/02/13 06:01:57;;;;;;;9.85;4.63;;;;;;;;;;4930371;28;20037;-62
2022/02/13 06:04:23;;;;;;;16.27;5.97;;;;;;;;;;4930784;28;20329;-62
2022/02/13 06:06:49;;;;;;;13.75;4.68;;;;;;;;;;4930527;28;20368;-62
2022/02/13 06:09:15;;;;;;;15.43;5.68;;;;;;;;;;4930371;28;20341;-63
2022/02/13 06:11:40;;;;;;;12.48;5.13;;;;;;;;;;4931639;28;20326;-62
2022/02/13 06:14:05;;;;;;;14.55;6.00;;;;;;;;;;4931144;28;20089;-62
2022/02/13 06:16:31;;;;;;;15.63;4.85;;;;;;;;;;4930550;28;20372;-62
2022/02/13 06:18:56;;;;;;;9.63;4.95;;;;;;;;;;4930927;28;20516;-63
2022/02/13 06:21:21;;;;;;;14.23;5.13;;;;;;;;;;4930621;28;20360;-62
2022/02/13 06:23:48;;;;;;;12.07;5.18;;;;;;;;;;4930705;28;20093;-63
2022/02/13 06:26:14;;;;;;;13.75;6.65;;;;;;;;;;4931024;28;20369;-62
2022/02/13 06:28:39;;;;;;;18.05;5.38;;;;;;;;;;4930329;28;20053;-62
2022/02/13 06:31:05;;;;;;;15.95;6.13;;;;;;;;;;4930136;28;20109;-61
2022/02/13 06:33:30;;;;;;;14.25;5.53;;;;;;;;;;4930356;28;20034;-63
2022/02/13 06:35:56;;;;;;;11.85;5.03;;;;;;;;;;4929656;28;20368;-61
2022/02/13 06:38:21;;;;;;;17.05;5.72;;;;;;;;;;4931051;28;20421;-62
2022/02/13 06:40:46;;;;;;;13.27;5.82;;;;;;;;;;4930021;28;20447;-63
2022/02/13 06:43:12;;;;;;;13.38;4.95;;;;;;;;;;4931150;28;20474;-62
2022/02/13 06:45:37;;;;;;;12.32;5.13;;;;;;;;;;4930560;28;20413;-62
2022/02/13 06:48:04;;;;;;;12.35;5.43;;;;;;;;;;4930788;28;20421;-62
2022/02/13 06:50:29;;;;;;;14.73;5.10;;;;;;;;;;4930135;28;20317;-63
2022/02/13 06:52:54;;;;;;;17.23;5.78;;;;;;;;;;4930384;28;20042;-62
2022/02/13 06:55:20;;;;;;;11.68;4.93;;;;;;;;;;4929806;28;20458;-64
2022/02/13 06:57:47;;;;;;;15.02;6.13;;;;;;;;;;4930265;28;20104;-62
2022/02/13 07:00:13;;;;;;;15.75;6.53;;;;;;;;;;4930850;28;20461;-62
2022/02/13 07:02:39;;;;;;;14.95;5.85;;;;;;;;;;4930510;28;20388;-62
2022/02/13 07:05:04;;;;;;;13.05;5.40;;;;;;;;;;4929791;28;20315;-61
2022/02/13 07:07:30;;;;;;;16.55;4.95;;;;;;;;;;4929734;28;20421;-62
2022/02/13 07:09:55;;;;;;;9.60;4.97;;;;;;;;;;4930556;28;20034;-61
2022/02/13 07:12:20;;;;;;;14.48;5.63;;;;;;;;;;4930159;28;20437;-64
2022/02/13 07:14:46;;;;;;;15.75;5.57;;;;;;;;;;4931758;28;20373;-62
2022/02/13 07:17:12;;;;;;;12.98;5.30;;;;;;;;;;4931971;28;20143;-61
2022/02/13 07:19:38;;;;;;;13.00;4.50;;;;;;;;;;4934500;28;20425;-61
2022/02/13 07:22:04;;;;;;;15.02;5.53;;;;;;;;;;4935347;28;20453;-62
2022/02/13 07:24:29;;;;;;;15.20;5.68;;;;;;;;;;4934140;28;20424;-61
2022/02/13 07:26:55;;;;;;;14.25;5.80;;;;;;;;;;4933295;28;20400;-61
2022/02/13 07:29:20;;;;;;;12.90;5.32;;;;;;;;;;4933669;28;20389;-61
2022/02/13 07:31:45;;;;;;;17.90;5.47;;;;;;;;;;4935303;28;20046;-61
2022/02/13 07:34:11;;;;;;;14.20;4.88;;;;;;;;;;4933324;28;20026;-61
2022/02/13 07:36:36;;;;;;;11.80;5.93;;;;;;;;;;4933273;28;20468;-61
2022/02/13 07:39:02;;;;;;;11.45;4.88;;;;;;;;;;4933395;28;20392;-61
2022/02/13 07:41:28;;;;;;;12.18;5.13;;;;;;;;;;4933007;28;20060;-61
2022/02/13 07:43:54;;;;;;;13.80;5.35;;;;;;;;;;4915895;28;20483;-61
2022/02/13 07:46:20;;;;;;;12.00;4.57;;;;;;;;;;4933376;28;20473;-61
2022/02/13 07:48:45;;;;;;;9.93;5.03;;;;;;;;;;4933575;28;20353;-61
2022/02/13 07:51:11;;;;;;;11.60;5.28;;;;;;;;;;4933218;28;20393;-61
2022/02/13 07:53:38;;;;;;;10.45;4.93;;;;;;;;;;4933978;28;20499;-60
2022/02/13 07:56:05;;;;;;;13.27;5.15;;;;;;;;;;4933996;28;20315;-61
2022/02/13 07:58:32;;;;;;;10.45;4.88;;;;;;;;;;4932775;28;20057;-60
2022/02/13 08:01:04;;;;;;;10.68;5.30;;;;;;;;;;4933077;28;20389;-61
2022/02/13 08:03:30;;;;;;;9.05;4.57;;;;;;;;;;4932700;28;20353;-61
2022/02/13 08:05:55;;;;;;;9.70;4.28;;;;;;;;;;4932976;28;20022;-61
2022/02/13 08:08:21;;;;;;;9.35;4.75;;;;;;;;;;4933163;28;20413;-61
2022/02/13 08:10:47;;;;;;;11.63;4.97;;;;;;;;;;4934528;28;20440;-62
2022/02/13 08:13:13;;;;;;;10.90;4.65;;;;;;;;;;4932699;28;20429;-60
2022/02/13 08:15:42;;;;;;;11.18;4.57;;;;;;;;;;4932419;28;20445;-61
2022/02/13 08:18:07;;;;;;;;;;;;;;;;;;4932984;28;20546;-62
2022/02/13 08:20:32;;;;;;;11.77;4.43;;;;;;;;;;4932418;28;20300;-61
2022/02/13 08:22:58;;;;;;;9.98;4.60;;;;;;;;;;4933567;28;20608;-61
2022/02/13 08:25:23;;;;;;;10.80;5.45;;;;;;;;;;4933340;28;20435;-61
2022/02/13 08:27:48;;;;;;;15.20;5.00;;;;;;;;;;4931474;28;20455;-61
2022/02/13 08:30:14;;;;;;;12.52;5.50;;;;;;;;;;4932238;28;20409;-61
2022/02/13 08:32:39;;;;;;;9.25;4.72;;;;;;;;;;4932808;28;20378;-61
2022/02/13 08:35:05;;;;;;;11.43;5.35;;;;;;;;;;4931898;28;20423;-61
2022/02/13 08:37:30;;;;;;;15.43;6.28;;;;;;;;;;4932737;28;20404;-61
2022/02/13 08:39:55;;;;;;;16.05;6.00;;;;;;;;;;4931986;28;20496;-60
2022/02/13 08:42:21;;;;;;;13.85;5.53;;;;;;;;;;4932136;28;20030;-61
2022/02/13 08:44:46;;;;;;;15.55;5.70;;;;;;;;;;4932101;28;20112;-61
2022/02/13 08:47:12;;;;;;;10.35;4.80;;;;;;;;;;4932052;28;20487;-61
2022/02/13 08:49:38;;;;;;;10.18;4.80;;;;;;;;;;4932390;28;20413;-61
2022/02/13 08:52:05;;;;;;;13.02;5.25;;;;;;;;;;4932365;28;20038;-62
2022/02/13 08:54:30;;;;;;;11.82;5.03;;;;;;;;;;4932457;28;20376;-61
2022/02/13 08:56:55;;;;;;;14.23;5.97;;;;;;;;;;4932139;28;20329;-61
2022/02/13 08:59:21;;;;;;;11.98;5.90;;;;;;;;;;4931606;28;20318;-61
2022/02/13 09:01:46;;;;;;;10.95;5.40;;;;;;;;;;4931977;28;20441;-61
2022/02/13 09:04:11;;;;;;;12.60;5.32;;;;;;;;;;4931676;28;20073;-60
2022/02/13 09:06:37;;;;;;;9.70;4.82;;;;;;;;;;4931877;28;20440;-62
2022/02/13 09:09:03;;;;;;;15.80;5.38;;;;;;;;;;4931964;28;20030;-61
2022/02/13 09:11:28;;;;;;;13.38;5.10;;;;;;;;;;4931616;28;20059;-62
2022/02/13 09:13:55;;;;;;;11.55;5.53;;;;;;;;;;4944192;28;20426;-61
2022/02/13 09:16:21;;;;;;;10.80;5.00;;;;;;;;;;4949783;28;20413;-61
2022/02/13 09:18:46;;;;;;;13.55;6.30;;;;;;;;;;4950636;28;20034;-61
2022/02/13 09:21:11;;;;;;;8.93;4.35;;;;;;;;;;4949846;28;20026;-60
2022/02/13 09:23:37;;;;;;;10.00;4.82;;;;;;;;;;4950514;28;20048;-61
2022/02/13 09:26:02;;;;;;;11.82;4.80;;;;;;;;;;4949885;28;20346;-61
2022/02/13 09:28:28;;;;;;;14.43;4.63;;;;;;;;;;4950340;28;20453;-62
2022/02/13 09:30:53;;;;;;;9.90;4.60;;;;;;;;;;4932345;28;20310;-61
2022/02/13 09:33:19;;;;;;;11.88;4.20;;;;;;;;;;4949992;28;20421;-62
2022/02/13 09:35:45;;;;;;;9.68;4.40;;;;;;;;;;4949450;28;20503;-60
2022/02/13 09:38:15;;;;;;;8.55;3.90;;;;;;;;;;4950000;28;20324;-61
2022/02/13 09:40:42;;;;;;;9.57;4.38;;;;;;;;;;4951173;28;20361;-60
2022/02/13 09:43:08;;;;;;;11.65;5.13;;;;;;;;;;4949826;28;20349;-61
2022/02/13 09:45:33;;;;;;;19.00;4.93;;;;;;;;;;4950436;28;20338;-63
2022/02/13 09:48:00;;;;;;;12.80;4.97;;;;;;;;;;4950620;28;20356;-59
2022/02/13 09:50:26;;;;;;;19.25;5.20;;;;;;;;;;4938397;28;20361;-60
2022/02/13 09:52:54;;;;;;;16.30;4.93;;;;;;;;;;4949431;28;20060;-59
2022/02/13 09:55:26;;;;;;;8.70;4.78;;;;;;;;;;4932167;28;20523;-59
2022/02/13 09:58:04;;;;;;;12.98;5.35;;;;;;;;;;4950601;28;20469;-59
2022/02/13 10:01:03;;;;;;;11.40;4.57;;;;;;;;;;4947226;28;20380;-59
2022/02/13 10:03:40;;;;;;;14.48;5.18;;;;;;;;;;4945799;28;20700;-61
2022/02/13 10:06:11;;;;;;;24.75;4.55;;;;;;;;;;4932496;28;20340;-61
2022/02/13 10:08:40;;;;;;;26.85;5.57;;;;;;;;;;4930650;28;20404;-61
2022/02/13 10:11:07;;;;;;;;;;;;;;;;;;4931421;28;20449;-59
2022/02/13 10:13:45;;;;;;;11.82;4.47;;;;;;;;;;4930700;28;20387;-59
2022/02/13 10:16:18;;;;;;;9.85;4.03;;;;;;;;;;4930721;28;20498;-60
2022/02/13 10:18:49;;;;;;;23.20;5.22;;;;;;;;;;4930556;28;20448;-59
2022/02/13 10:21:34;;;;;;;15.23;4.80;;;;;;;;;;4930502;28;20519;-59
2022/02/13 10:24:18;;;;;;;12.35;4.53;;;;;;;;;;4947637;28;20356;-58
2022/02/13 10:26:44;;;;;;;16.05;4.82;;;;;;;;;;4950473;28;20038;-59
2022/02/13 10:29:11;;;;;;;23.95;4.93;;;;;;;;;;4949696;28;20345;-59
2022/02/13 10:31:40;;;;;;;14.38;5.38;;;;;;;;;;4951227;28;20344;-58
2022/02/13 10:34:06;;;;;;;13.32;5.60;;;;;;;;;;4948993;28;20025;-58
2022/02/13 10:36:41;;;;;;;18.55;5.30;;;;;;;;;;4949000;28;20100;-59
2022/02/13 10:39:17;;;;;;;17.63;6.60;;;;;;;;;;4948791;28;20484;-59
2022/02/13 10:41:42;;;;;;;10.13;5.07;;;;;;;;;;4949893;28;20295;-58
2022/02/13 10:44:08;;;;;;;11.82;4.85;;;;;;;;;;4951006;28;20107;-59
2022/02/13 10:46:36;;;;;;;15.90;5.63;;;;;;;;;;4946479;28;20049;-59
2022/02/13 10:49:03;;;;;;;13.25;5.40;;;;;;;;;;4950213;28;20349;-59
2022/02/13 10:51:29;;;;;;;14.85;5.57;;;;;;;;;;4950717;28;20109;-59
2022/02/13 10:53:55;;;;;;;16.58;6.75;;;;;;;;;;4953855;28;20464;-59
2022/02/13 10:56:21;;;;;;;14.55;6.35;;;;;;;;;;4953601;28;20436;-59
2022/02/13 10:58:47;;;;;;;13.85;5.97;;;;;;;;;;4953055;28;20458;-59
2022/02/13 11:01:12;;;;;;;15.35;6.72;;;;;;;;;;4952642;28;20396;-60
2022/02/13 11:03:38;;;;;;;11.63;5.95;;;;;;;;;;4935673;28;20034;-59
2022/02/13 11:06:05;;;;;;;11.38;5.88;;;;;;;;;;4950974;28;20348;-59
2022/02/13 11:08:34;;;;;;;14.18;6.20;;;;;;;;;;4952814;28;20376;-61
2022/02/13 11:11:00;;;;;;;14.70;6.25;;;;;;;;;;4935466;28;20103;-58
2022/02/13 11:13:31;;;;;;;17.45;6.00;;;;;;;;;;4936206;28;20433;-59
2022/02/13 11:15:57;;;;;;;14.90;6.00;;;;;;;;;;4935851;28;20088;-58
2022/02/13 11:18:26;;;;;;;18.38;6.65;;;;;;;;;;4935474;28;20061;-59
2022/02/13 11:20:54;;;;;;;16.60;6.22;;;;;;;;;;4953160;28;20137;-59
2022/02/13 11:23:23;;;;;;;12.47;5.83;;;;;;;;;;4952775;28;20029;-61
2022/02/13 11:26:00;;;;;;;16.70;5.90;;;;;;;;;;4953262;28;20771;-59
2022/02/13 11:28:46;;;;;;;10.77;6.07;;;;;;;;;;4953455;28;20113;-59
2022/02/13 11:31:40;;;;;;;12.15;6.38;;;;;;;;;;4952750;28;20524;-59
2022/02/13 11:34:35;;;;;;;14.02;5.47;;;;;;;;;;4953053;28;20429;-59
2022/02/13 11:37:19;;;;;;;9.05;5.15;;;;;;;;;;4952460;28;20433;-59
2022/02/13 11:39:45;;;;;;;11.00;5.38;;;;;;;;;;4952727;28;20519;-60
2022/02/13 11:42:20;;;;;;;11.30;5.18;;;;;;;;;;4952480;28;20030;-60
2022/02/13 11:44:54;;;;;;;13.40;5.18;;;;;;;;;;4952698;28;20479;-59
2022/02/13 11:47:43;;;;;;;10.30;5.13;;;;;;;;;;4952651;28;20425;-59
2022/02/13 11:50:09;;;;;;;8.77;4.65;;;;;;;;;;4952408;28;20441;-59
2022/02/13 11:52:36;;;;;;;13.00;5.63;;;;;;;;;;4954027;28;20340;-59
2022/02/13 11:55:16;;;;;;;11.77;4.90;;;;;;;;;;4954254;28;20057;-59
2022/02/13 11:57:53;;;;;;;11.20;4.95;;;;;;;;;;4951992;28;20124;-59
2022/02/13 12:00:31;;;;;;;8.90;4.68;;;;;;;;;;4952491;28;20444;-59
2022/02/13 12:02:56;;;;;;;13.50;4.88;;;;;;;;;;4952290;28;20421;-58
2022/02/13 12:05:22;;;;;;;11.25;4.50;;;;;;;;;;4953574;28;20449;-59
2022/02/13 12:07:47;;;;;;;11.63;4.28;;;;;;;;;;4952830;28;20393;-59
2022/02/13 12:10:18;;;;;;;9.32;4.53;;;;;;;;;;4953159;28;20315;-60
2022/02/13 12:12:44;;;;;;;8.85;4.25;;;;;;;;;;4951835;28;20458;-59
2022/02/13 12:15:11;;;;;;;9.43;3.80;;;;;;;;;;4952494;28;20349;-59
2022/02/13 12:17:37;;;;;;;7.65;3.50;;;;;;;;;;4934805;28;20365;-59
2022/02/13 12:20:10;;;;;;;11.93;4.40;;;;;;;;;;4952071;28;20397;-59
2022/02/13 12:22:37;;;;;;;7.28;4.10;;;;;;;;;;4951935;28;20459;-59
2022/02/13 12:25:05;;;;;;;11.88;4.55;;;;;;;;;;4934147;28;20457;-59
2022/02/13 12:27:30;;;;;;;10.00;4.43;;;;;;;;;;4951836;28;20447;-58
2022/02/13 12:30:02;;;;;;;7.03;3.28;;;;;;;;;;4951773;28;20451;-60
2022/02/13 12:32:32;;;;;;;8.27;3.80;;;;;;;;;;4952225;28;20464;-59
2022/02/13 12:35:02;;;;;;;8.07;3.42;;;;;;;;;;4951647;28;20396;-62
2022/02/13 12:37:41;;;;;;;6.00;3.28;;;;;;;;;;4951609;28;21033;-59
2022/02/13 12:40:10;;;;;;;6.03;3.53;;;;;;;;;;4951806;28;20356;-60
2022/02/13 12:42:39;;;;;;;9.90;3.60;;;;;;;;;;4951628;28;20365;-60
2022/02/13 12:45:08;;;;;;;7.43;3.70;;;;;;;;;;4951530;28;20081;-59
2022/02/13 12:47:35;;;;;;;7.57;3.88;;;;;;;;;;4951185;28;20440;-59
2022/02/13 12:50:02;;;;;;;7.07;3.60;;;;;;;;;;4951327;28;20453;-60
2022/02/13 12:52:30;;;;;;;6.90;3.35;;;;;;;;;;4950918;28;20030;-60
2022/02/13 12:54:57;;;;;;;8.73;3.37;;;;;;;;;;4951984;28;20385;-58
2022/02/13 12:57:24;;;;;;;8.48;3.13;;;;;;;;;;4951355;28;20025;-59
2022/02/13 12:59:49;;;;;;;7.47;3.55;;;;;;;;;;4934196;28;20503;-59
2022/02/13 13:02:20;;;;;;;5.78;3.60;;;;;;;;;;4934008;28;20445;-59
2022/02/13 13:04:45;;;;;;;6.45;3.35;;;;;;;;;;4933964;28;20310;-59
2022/02/13 13:07:17;;;;;;;6.18;3.33;;;;;;;;;;4951352;28;20444;-60
2022/02/13 13:09:43;;;;;;;10.00;4.00;;;;;;;;;;4951382;28;20444;-63
2022/02/13 13:12:12;;;;;;;7.63;2.75;;;;;;;;;;4952024;28;20440;-59
2022/02/13 13:14:38;;;;;;;5.53;2.63;;;;;;;;;;4950728;28;20368;-58
2022/02/13 13:17:07;;;;;;;6.65;2.67;;;;;;;;;;4951968;28;20405;-62
2022/02/13 13:19:33;;;;;;;7.53;3.42;;;;;;;;;;4951831;28;20373;-61
2022/02/13 13:21:58;;;;;;;6.47;2.85;;;;;;;;;;4950369;28;20508;-62
2022/02/13 13:24:26;;;;;;;5.13;2.85;;;;;;;;;;4951072;28;20443;-62
2022/02/13 13:26:59;;;;;;;5.78;3.20;;;;;;;;;;4950845;28;20389;-61
2022/02/13 13:29:24;;;;;;;7.38;3.33;;;;;;;;;;4950859;28;20432;-61
2022/02/13 13:32:11;;;;;;;10.18;2.88;;;;;;;;;;4950564;28;20418;-62
2022/02/13 13:34:38;;;;;;;9.23;3.17;;;;;;;;;;4951002;28;20430;-62
2022/02/13 13:37:30;;;;;;;5.63;2.85;;;;;;;;;;4929373;28;20363;-62
2022/02/13 13:40:05;;;;;;;4.88;2.53;;;;;;;;;;4931753;28;20354;-60
2022/02/13 13:42:35;;;;;;;4.32;2.33;;;;;;;;;;4931039;28;20038;-61
2022/02/13 13:45:15;;;;;;;4.63;2.55;;;;;;;;;;4931146;28;20341;-62
2022/02/13 13:47:43;;;;;;;4.65;2.28;;;;;;;;;;4931119;28;20472;-62
2022/02/13 13:50:09;;;;;;;4.35;2.63;;;;;;;;;;4930768;28;20512;-62
2022/02/13 13:52:34;;;;;;;4.90;2.33;;;;;;;;;;4931717;28;20319;-61
2022/02/13 13:55:00;;;;;;;4.80;2.63;;;;;;;;;;4930597;28;20441;-62
2022/02/13 13:57:25;;;;;;;3.67;2.30;;;;;;;;;;4930670;28;20438;-62
2022/02/13 13:59:50;;;;;;;6.78;2.85;;;;;;;;;;4930701;28;20614;-62
2022/02/13 14:02:21;;;;;;;6.38;2.55;;;;;;;;;;4930592;28;20451;-62
2022/02/13 14:04:47;;;;;;;5.85;2.60;;;;;;;;;;4930633;28;20272;-62
2022/02/13 14:07:13;;;;;;;5.68;2.55;;;;;;;;;;4931318;28;20334;-61
2022/02/13 14:09:38;;;;;;;6.38;3.00;;;;;;;;;;4930839;28;20370;-62
2022/02/13 14:12:04;;;;;;;6.88;2.75;;;;;;;;;;4932082;28;20402;-62
2022/02/13 14:14:31;;;;;;;8.93;3.47;;;;;;;;;;4930631;28;20523;-62
2022/02/13 14:16:57;;;;;;;7.47;3.25;;;;;;;;;;4930347;28;20580;-62
2022/02/13 14:19:22;;;;;;;6.90;3.60;;;;;;;;;;4930692;28;20455;-61
2022/02/13 14:21:47;;;;;;;6.18;3.08;;;;;;;;;;4930389;28;20351;-62
2022/02/13 14:24:13;;;;;;;5.13;2.70;;;;;;;;;;4930812;28;20525;-62
2022/02/13 14:26:38;;;;;;;5.60;2.65;;;;;;;;;;4929542;28;20031;-62
2022/02/13 14:29:04;;;;;;;6.32;2.75;;;;;;;;;;4930591;28;20434;-61
2022/02/13 14:31:29;;;;;;;7.53;3.08;;;;;;;;;;4930080;28;20442;-62